Time;durP1;ratioP1;P1;durP2;ratioP2;P2;SDS_P1;SDS_P2;PMS_P1;PMS_P2;Temp;Humidity;BMP_temperature;BMP_pressure;BME280_temperature;BME280_humidity;BME280_pressure;Samples;Min_cycle;Max_cycle;Signal;HPM_P1;HPM_P2
2022/01/17 00:01:34;;;;;;;37.67;14.38;;;;;;;;;;4996192;28;20021;-50
2022/01/17 00:03:59;;;;;;;37.63;14.38;;;;;;;;;;4996236;28;20439;-49
2022/01/17 00:06:25;;;;;;;33.90;15.07;;;;;;;;;;4996065;28;20029;-51
2022/01/17 00:08:50;;;;;;;33.03;15.93;;;;;;;;;;4996388;28;20038;-48
2022/01/17 00:11:21;;;;;;;34.70;14.32;;;;;;;;;;4997036;28;20500;-49
2022/01/17 00:13:49;;;;;;;35.05;14.48;;;;;;;;;;4995961;28;20031;-48
2022/01/17 00:16:19;;;;;;;29.98;13.50;;;;;;;;;;4996030;28;20030;-48
2022/01/17 00:21:10;;;;;;;29.27;12.73;;;;;;;;;;4995879;28;19997;-48
2022/01/17 00:23:35;;;;;;;36.05;13.77;;;;;;;;;;4995471;28;20006;-48
2022/01/17 00:26:04;;;;;;;32.50;12.23;;;;;;;;;;4977607;28;20061;-48
2022/01/17 00:28:29;;;;;;;35.85;12.25;;;;;;;;;;4995675;28;20038;-48
2022/01/17 00:30:54;;;;;;;36.40;13.50;;;;;;;;;;4995598;28;20030;-48
2022/01/17 00:33:19;;;;;;;31.02;12.95;;;;;;;;;;4995642;28;20025;-48
2022/01/17 00:35:45;;;;;;;33.20;13.57;;;;;;;;;;4995310;28;20030;-48
2022/01/17 00:38:12;;;;;;;34.22;12.10;;;;;;;;;;4995157;28;20042;-48
2022/01/17 00:40:42;;;;;;;33.65;12.30;;;;;;;;;;4995359;28;20019;-51
2022/01/17 00:43:07;;;;;;;35.17;11.48;;;;;;;;;;4995448;28;20022;-48
2022/01/17 00:45:35;;;;;;;32.63;10.07;;;;;;;;;;4995370;28;20063;-48
2022/01/17 00:48:05;;;;;;;24.27;7.15;;;;;;;;;;4995257;28;20473;-48
2022/01/17 00:50:31;;;;;;;;;;;;;;;;;;4995786;28;20058;-48
2022/01/17 00:52:57;;;;;;;24.13;7.78;;;;;;;;;;4995418;28;19906;-48
2022/01/17 00:55:25;;;;;;;16.08;6.20;;;;;;;;;;4995064;28;20026;-48
2022/01/17 00:57:53;;;;;;;29.65;7.93;;;;;;;;;;4995065;28;20461;-48
2022/01/17 01:00:18;;;;;;;20.70;6.40;;;;;;;;;;4995130;28;20018;-48
2022/01/17 01:02:44;;;;;;;21.77;5.65;;;;;;;;;;4995211;28;20026;-49
2022/01/17 01:05:09;;;;;;;19.75;5.10;;;;;;;;;;4995321;28;20010;-49
2022/01/17 01:07:39;;;;;;;16.55;5.40;;;;;;;;;;4995196;28;20032;-49
2022/01/17 01:10:11;;;;;;;16.48;4.75;;;;;;;;;;4995016;28;20106;-48
2022/01/17 01:12:37;;;;;;;17.90;5.72;;;;;;;;;;4994999;28;20027;-49
2022/01/17 01:15:06;;;;;;;24.80;6.07;;;;;;;;;;4994940;28;20545;-49
2022/01/17 01:17:48;;;;;;;14.05;4.50;;;;;;;;;;4994859;28;20018;-48
2022/01/17 01:20:35;;;;;;;26.05;5.25;;;;;;;;;;4994799;28;20022;-48
2022/01/17 01:28:32;;;;;;;21.65;5.40;;;;;;;;;;4995172;28;20386;-48
2022/01/17 01:31:03;;;;;;;17.40;4.13;;;;;;;;;;4994798;28;20034;-48
2022/01/17 01:33:36;;;;;;;16.70;3.83;;;;;;;;;;4994654;28;20061;-48
2022/01/17 01:36:13;;;;;;;14.82;4.88;;;;;;;;;;4994528;28;20030;-48
2022/01/17 01:38:42;;;;;;;14.02;4.80;;;;;;;;;;5007987;23;20521;-48
2022/01/17 01:41:08;;;;;;;16.17;4.63;;;;;;;;;;5001081;28;20030;-49
2022/01/17 01:43:36;;;;;;;11.90;4.10;;;;;;;;;;5001169;28;20029;-48
2022/01/17 01:46:02;;;;;;;12.85;4.05;;;;;;;;;;5001099;28;20022;-51
2022/01/17 01:48:31;;;;;;;18.77;4.65;;;;;;;;;;5001097;28;20022;-51
2022/01/17 01:50:57;;;;;;;11.35;3.80;;;;;;;;;;5000644;28;20031;-48
2022/01/17 01:53:23;;;;;;;14.15;4.13;;;;;;;;;;5001006;28;20073;-47
2022/01/17 01:55:55;;;;;;;16.80;6.05;;;;;;;;;;5000861;28;20076;-48
2022/01/17 01:58:21;;;;;;;16.35;4.13;;;;;;;;;;5001058;28;20030;-49
2022/01/17 02:00:50;;;;;;;21.02;4.30;;;;;;;;;;5000962;28;20187;-48
2022/01/17 02:03:15;;;;;;;16.58;4.40;;;;;;;;;;5000966;28;20026;-48
2022/01/17 02:05:43;;;;;;;19.70;5.93;;;;;;;;;;5000843;28;20018;-48
2022/01/17 02:08:09;;;;;;;15.02;4.18;;;;;;;;;;5000975;28;20097;-48
2022/01/17 02:10:40;;;;;;;22.05;5.43;;;;;;;;;;5000969;28;20049;-51
2022/01/17 02:13:05;;;;;;;;;;;;;;;;;;5001332;28;20045;-48
2022/01/17 02:15:30;;;;;;;18.33;4.88;;;;;;;;;;5000825;28;19906;-49
2022/01/17 02:17:57;;;;;;;17.58;5.30;;;;;;;;;;5000913;28;20381;-51
2022/01/17 02:20:24;;;;;;;15.55;4.00;;;;;;;;;;5000724;28;20042;-50
2022/01/17 02:22:49;;;;;;;11.20;4.90;;;;;;;;;;5000736;28;20097;-48
2022/01/17 02:25:14;;;;;;;20.67;5.28;;;;;;;;;;5000705;28;20096;-49
2022/01/17 02:27:43;;;;;;;18.98;5.00;;;;;;;;;;5000765;28;20022;-49
2022/01/17 02:30:08;;;;;;;18.73;5.47;;;;;;;;;;5000778;28;20022;-50
2022/01/17 02:32:34;;;;;;;19.50;4.75;;;;;;;;;;5000874;28;20073;-51
2022/01/17 02:35:16;;;;;;;18.35;4.90;;;;;;;;;;5000657;28;20054;-47
2022/01/17 02:37:46;;;;;;;13.15;4.47;;;;;;;;;;5000499;28;20516;-48
2022/01/17 02:40:15;;;;;;;15.93;5.00;;;;;;;;;;5000747;28;20113;-48
2022/01/17 02:43:07;;;;;;;14.32;4.88;;;;;;;;;;4982947;28;20062;-48
2022/01/17 02:48:17;;;;;;;16.27;4.60;;;;;;;;;;4999413;28;20458;-48
2022/01/17 02:50:43;;;;;;;12.10;5.20;;;;;;;;;;4997372;28;20105;-49
2022/01/17 02:53:09;;;;;;;11.57;4.07;;;;;;;;;;4997472;28;20173;-49
2022/01/17 02:55:35;;;;;;;12.57;4.35;;;;;;;;;;4997253;28;20011;-50
2022/01/17 02:58:00;;;;;;;19.38;4.88;;;;;;;;;;4997357;28;20026;-48
2022/01/17 03:00:26;;;;;;;9.98;4.13;;;;;;;;;;4979881;28;20026;-48
2022/01/17 03:02:51;;;;;;;12.73;4.05;;;;;;;;;;4997301;28;20022;-48
2022/01/17 03:05:21;;;;;;;18.52;4.70;;;;;;;;;;4997238;28;20022;-48
2022/01/17 03:07:52;;;;;;;14.30;4.40;;;;;;;;;;4997092;28;20033;-49
2022/01/17 03:10:39;;;;;;;;;;;;;;;;;;4997649;28;20019;-51
2022/01/17 03:13:10;;;;;;;14.02;5.13;;;;;;;;;;4997196;28;19921;-51
2022/01/17 03:15:36;;;;;;;14.07;4.65;;;;;;;;;;4997362;28;20031;-50
2022/01/17 03:18:02;;;;;;;13.25;4.55;;;;;;;;;;4996887;28;20037;-48
2022/01/17 03:20:30;;;;;;;13.73;5.20;;;;;;;;;;4996945;28;20014;-48
2022/01/17 03:22:55;;;;;;;19.42;4.82;;;;;;;;;;4996980;28;20022;-48
2022/01/17 03:25:25;;;;;;;10.02;4.80;;;;;;;;;;4996756;28;20385;-50
2022/01/17 03:27:50;;;;;;;10.00;4.20;;;;;;;;;;4996799;28;20042;-50
2022/01/17 03:30:15;;;;;;;11.93;4.40;;;;;;;;;;4996837;28;20516;-50
2022/01/17 03:32:41;;;;;;;11.65;3.97;;;;;;;;;;4996768;28;20443;-48
2022/01/17 03:35:07;;;;;;;11.63;4.38;;;;;;;;;;4996705;28;20485;-50
2022/01/17 03:37:33;;;;;;;13.50;5.20;;;;;;;;;;4996373;28;20113;-48
2022/01/17 03:39:58;;;;;;;8.23;4.78;;;;;;;;;;4979131;28;20022;-48
2022/01/17 03:42:26;;;;;;;13.52;5.18;;;;;;;;;;4996710;28;20378;-49
2022/01/17 03:44:51;;;;;;;10.60;5.45;;;;;;;;;;4996443;28;20022;-48
2022/01/17 03:47:19;;;;;;;16.13;5.25;;;;;;;;;;4996549;28;20022;-48
2022/01/17 03:49:45;;;;;;;9.35;4.20;;;;;;;;;;4996415;28;20026;-49
2022/01/17 03:52:10;;;;;;;15.25;4.50;;;;;;;;;;4996465;28;20017;-48
2022/01/17 03:54:35;;;;;;;13.25;4.65;;;;;;;;;;4996464;28;20382;-50
2022/01/17 03:57:01;;;;;;;13.00;4.93;;;;;;;;;;4978872;28;20052;-48
2022/01/17 03:59:27;;;;;;;15.90;4.80;;;;;;;;;;4996181;28;20081;-49
2022/01/17 04:01:52;;;;;;;14.68;5.22;;;;;;;;;;4995056;28;20018;-48
2022/01/17 04:04:22;;;;;;;15.07;5.70;;;;;;;;;;4996156;28;20381;-48
2022/01/17 04:06:47;;;;;;;15.13;5.43;;;;;;;;;;4996111;28;20046;-48
2022/01/17 04:09:13;;;;;;;19.02;5.80;;;;;;;;;;4996081;28;20053;-48
2022/01/17 04:11:42;;;;;;;13.82;5.32;;;;;;;;;;4995885;28;20125;-48
2022/01/17 04:14:11;;;;;;;11.52;5.85;;;;;;;;;;4996090;28;20031;-50
2022/01/17 04:16:36;;;;;;;17.17;6.53;;;;;;;;;;4995939;28;20037;-48
2022/01/17 04:19:02;;;;;;;15.02;6.25;;;;;;;;;;4997216;28;20015;-48
2022/01/17 04:21:35;;;;;;;10.82;5.30;;;;;;;;;;4995961;28;20022;-48
2022/01/17 04:24:00;;;;;;;16.92;5.20;;;;;;;;;;4995930;28;20022;-47
2022/01/17 04:26:25;;;;;;;18.20;6.63;;;;;;;;;;4996001;28;20377;-48
2022/01/17 04:28:51;;;;;;;15.82;5.65;;;;;;;;;;4995628;28;20018;-48
2022/01/17 04:31:19;;;;;;;16.58;6.63;;;;;;;;;;4995724;28;20019;-48
2022/01/17 04:33:47;;;;;;;12.73;5.40;;;;;;;;;;4995693;28;20109;-48
2022/01/17 04:36:12;;;;;;;18.70;5.63;;;;;;;;;;4995500;28;20461;-48
2022/01/17 04:38:37;;;;;;;16.48;5.10;;;;;;;;;;4993945;28;20049;-48
2022/01/17 04:41:15;;;;;;;13.70;5.43;;;;;;;;;;4995241;28;20489;-48
2022/01/17 04:46:06;;;;;;;16.13;4.60;;;;;;;;;;4995325;28;20030;-48
2022/01/17 04:48:37;;;;;;;10.75;3.95;;;;;;;;;;4995384;28;20093;-47
2022/01/17 04:51:02;;;;;;;12.45;4.10;;;;;;;;;;4995431;28;20018;-49
2022/01/17 04:53:28;;;;;;;12.90;4.22;;;;;;;;;;4995220;28;20019;-48
2022/01/17 04:55:54;;;;;;;9.30;4.18;;;;;;;;;;4995089;28;20026;-48
2022/01/17 04:58:19;;;;;;;12.50;4.07;;;;;;;;;;4995141;28;20354;-48
2022/01/17 05:00:46;;;;;;;16.17;5.10;;;;;;;;;;4995009;28;20022;-47
2022/01/17 05:03:18;;;;;;;17.60;5.57;;;;;;;;;;4995202;28;20457;-48
2022/01/17 05:05:45;;;;;;;8.63;4.22;;;;;;;;;;4995220;28;20381;-47
2022/01/17 05:08:13;;;;;;;13.27;4.60;;;;;;;;;;4994915;28;20026;-47
2022/01/17 05:10:39;;;;;;;15.80;4.85;;;;;;;;;;4994966;28;20068;-48
2022/01/17 05:13:08;;;;;;;11.18;5.40;;;;;;;;;;4994530;28;20397;-48
2022/01/17 05:15:37;;;;;;;13.70;5.90;;;;;;;;;;4994841;28;20022;-48
2022/01/17 05:18:24;;;;;;;;;;;;;;;;;;;;;
2022/01/17 05:20:44;;;;;;;11.10;5.57;;;;;;;;;;4994829;28;20030;-49
2022/01/17 05:23:09;;;;;;;12.80;6.28;;;;;;;;;;4994852;28;20014;-47
2022/01/17 05:25:35;;;;;;;11.85;6.65;;;;;;;;;;4994865;28;20033;-49
2022/01/17 05:28:00;;;;;;;19.67;8.13;;;;;;;;;;4994676;28;20014;-48
2022/01/17 05:30:26;;;;;;;14.95;7.82;;;;;;;;;;4994706;28;20011;-48
2022/01/17 05:32:58;;;;;;;16.83;8.57;;;;;;;;;;4994648;28;20042;-48
2022/01/17 05:35:24;;;;;;;20.10;9.68;;;;;;;;;;4994611;28;20042;-49
2022/01/17 05:37:49;;;;;;;22.33;10.98;;;;;;;;;;4994453;28;20046;-48
2022/01/17 05:40:18;;;;;;;21.20;10.30;;;;;;;;;;4994767;28;20037;-48
2022/01/17 05:42:43;;;;;;;26.80;11.77;;;;;;;;;;4994588;28;20017;-48
2022/01/17 05:45:09;;;;;;;28.48;12.70;;;;;;;;;;4994683;28;20101;-48
2022/01/17 05:47:35;;;;;;;25.00;12.60;;;;;;;;;;4994456;28;20022;-48
2022/01/17 05:50:02;;;;;;;34.10;13.88;;;;;;;;;;4976909;28;20092;-47
2022/01/17 05:52:33;;;;;;;29.08;14.43;;;;;;;;;;4994450;28;20090;-49
2022/01/17 05:54:59;;;;;;;27.58;15.57;;;;;;;;;;4994490;28;20081;-48
2022/01/17 05:57:24;;;;;;;27.42;15.50;;;;;;;;;;4994581;28;20026;-50
2022/01/17 05:59:52;;;;;;;30.48;15.90;;;;;;;;;;4994582;28;20072;-49
2022/01/17 06:02:18;;;;;;;25.95;16.60;;;;;;;;;;4994570;28;20072;-49
2022/01/17 06:04:46;;;;;;;37.17;18.58;;;;;;;;;;4994557;28;20097;-48
2022/01/17 06:07:14;;;;;;;33.38;16.75;;;;;;;;;;4994589;28;20026;-50
2022/01/17 06:09:39;;;;;;;27.92;16.52;;;;;;;;;;4976520;28;20064;-49
2022/01/17 06:12:05;;;;;;;32.15;18.60;;;;;;;;;;4994266;28;20025;-49
2022/01/17 06:14:31;;;;;;;32.63;17.17;;;;;;;;;;4994176;28;20343;-50
2022/01/17 06:16:56;;;;;;;32.58;18.60;;;;;;;;;;4994369;28;20054;-48
2022/01/17 06:19:25;;;;;;;36.53;19.42;;;;;;;;;;4994306;28;20097;-51
2022/01/17 06:21:50;;;;;;;29.17;18.55;;;;;;;;;;4994301;28;20011;-48
2022/01/17 06:24:15;;;;;;;41.15;22.40;;;;;;;;;;4994399;28;20365;-48
2022/01/17 06:26:42;;;;;;;34.33;20.98;;;;;;;;;;4996750;28;20026;-51
2022/01/17 06:29:08;;;;;;;34.28;22.50;;;;;;;;;;4996950;28;20105;-50
2022/01/17 06:31:34;;;;;;;38.28;21.88;;;;;;;;;;4995999;28;20030;-49
2022/01/17 06:33:59;;;;;;;36.08;22.02;;;;;;;;;;4994953;28;20030;-48
2022/01/17 06:36:25;;;;;;;38.58;23.40;;;;;;;;;;4995307;28;20027;-51
2022/01/17 06:38:50;;;;;;;35.15;23.83;;;;;;;;;;4995048;28;20137;-51
2022/01/17 06:41:18;;;;;;;43.28;23.75;;;;;;;;;;4995987;28;20022;-49
2022/01/17 06:43:44;;;;;;;43.90;23.10;;;;;;;;;;4993614;28;20588;-50
2022/01/17 06:46:10;;;;;;;37.92;23.40;;;;;;;;;;4992483;28;20018;-49
2022/01/17 06:48:35;;;;;;;37.08;22.48;;;;;;;;;;4986056;28;20030;-51
2022/01/17 06:51:00;;;;;;;40.78;25.73;;;;;;;;;;4972640;28;20489;-51
2022/01/17 06:53:29;;;;;;;39.55;25.05;;;;;;;;;;4986528;28;20176;-48
2022/01/17 06:55:55;;;;;;;39.17;23.67;;;;;;;;;;4987966;28;20038;-50
2022/01/17 06:58:21;;;;;;;38.08;23.20;;;;;;;;;;4987014;28;20023;-49
2022/01/17 07:00:48;;;;;;;36.97;23.75;;;;;;;;;;4976985;28;20030;-48
2022/01/17 07:03:16;;;;;;;40.58;23.80;;;;;;;;;;4969760;28;20102;-50
2022/01/17 07:05:44;;;;;;;38.50;22.73;;;;;;;;;;4974033;28;20045;-48
2022/01/17 07:08:12;;;;;;;39.63;23.60;;;;;;;;;;4966464;28;20492;-48
2022/01/17 07:10:37;;;;;;;39.45;22.70;;;;;;;;;;4964518;28;20026;-48
2022/01/17 07:13:03;;;;;;;37.33;22.40;;;;;;;;;;4969602;28;20057;-51
2022/01/17 07:15:31;;;;;;;42.45;23.25;;;;;;;;;;4931465;28;20030;-49
2022/01/17 07:17:56;;;;;;;45.30;22.42;;;;;;;;;;4910515;28;20740;-51
2022/01/17 07:20:21;;;;;;;37.92;22.75;;;;;;;;;;4876555;28;22218;-51
2022/01/17 07:22:46;;;;;;;44.50;21.85;;;;;;;;;;4809593;28;22388;-49
2022/01/17 07:25:12;;;;;;;42.45;23.30;;;;;;;;;;4832154;28;20676;-50
2022/01/17 07:27:40;;;;;;;43.50;20.98;;;;;;;;;;4752999;28;20577;-53
2022/01/17 07:30:07;;;;;;;41.15;21.15;;;;;;;;;;4786916;28;20615;-51
2022/01/17 07:32:33;;;;;;;42.30;19.80;;;;;;;;;;4763629;28;22296;-50
2022/01/17 07:34:58;;;;;;;37.15;20.23;;;;;;;;;;4720222;28;20101;-52
2022/01/17 07:37:24;;;;;;;40.75;21.00;;;;;;;;;;4695456;28;21303;-53
2022/01/17 07:39:52;;;;;;;38.25;19.38;;;;;;;;;;4802184;28;20042;-52
2022/01/17 07:42:17;;;;;;;42.80;20.17;;;;;;;;;;4823529;28;20877;-49
2022/01/17 07:44:43;;;;;;;33.58;19.25;;;;;;;;;;4820076;28;21339;-49
2022/01/17 07:47:16;;;;;;;33.05;19.17;;;;;;;;;;4836377;28;20584;-51
2022/01/17 07:49:42;;;;;;;34.50;19.58;;;;;;;;;;4820347;28;20157;-52
2022/01/17 07:52:07;;;;;;;40.38;19.05;;;;;;;;;;4830856;28;20361;-52
2022/01/17 07:54:35;;;;;;;36.33;19.95;;;;;;;;;;4817615;28;20030;-48
2022/01/17 07:57:00;;;;;;;39.22;18.02;;;;;;;;;;4784092;28;20038;-53
2022/01/17 07:59:26;;;;;;;38.67;17.65;;;;;;;;;;4782287;28;20121;-52
2022/01/17 08:01:52;;;;;;;34.13;17.85;;;;;;;;;;4771207;28;20476;-49
2022/01/17 08:04:17;;;;;;;39.30;18.15;;;;;;;;;;4787989;28;20440;-51
2022/01/17 08:06:42;;;;;;;35.72;17.60;;;;;;;;;;4740730;28;20860;-49
2022/01/17 08:09:09;;;;;;;37.88;17.35;;;;;;;;;;4772624;28;20038;-52
2022/01/17 08:11:35;;;;;;;42.30;17.35;;;;;;;;;;4715225;28;20030;-50
2022/01/17 08:14:00;;;;;;;38.58;16.25;;;;;;;;;;4729034;28;20977;-51
2022/01/17 08:16:25;;;;;;;36.33;17.65;;;;;;;;;;4597215;28;20076;-53
2022/01/17 08:18:53;;;;;;;28.52;16.75;;;;;;;;;;4496756;28;21350;-51
2022/01/17 08:21:19;;;;;;;39.40;17.83;;;;;;;;;;4522998;28;20281;-51
2022/01/17 08:23:47;;;;;;;37.70;17.98;;;;;;;;;;4387534;28;20904;-50
2022/01/17 08:26:19;;;;;;;33.38;17.85;;;;;;;;;;4511420;28;24650;-50
2022/01/17 08:28:45;;;;;;;34.08;16.77;;;;;;;;;;4621221;28;20026;-50
2022/01/17 08:31:10;;;;;;;31.58;17.15;;;;;;;;;;4653484;28;20580;-49
2022/01/17 08:33:39;;;;;;;35.70;16.02;;;;;;;;;;4710938;28;20110;-50
2022/01/17 08:36:04;;;;;;;34.42;17.02;;;;;;;;;;4719809;28;20034;-49
2022/01/17 08:38:30;;;;;;;35.70;15.82;;;;;;;;;;4702852;28;21319;-52
2022/01/17 08:40:59;;;;;;;32.67;14.55;;;;;;;;;;4703351;28;20046;-50
2022/01/17 08:43:25;;;;;;;32.40;15.15;;;;;;;;;;4717358;28;22170;-49
2022/01/17 08:45:53;;;;;;;35.47;13.85;;;;;;;;;;4700528;28;21185;-51
2022/01/17 08:48:19;;;;;;;29.52;13.55;;;;;;;;;;4725470;28;20557;-52
2022/01/17 08:50:47;;;;;;;39.22;12.48;;;;;;;;;;4699398;28;21135;-50
2022/01/17 08:53:15;;;;;;;22.40;12.02;;;;;;;;;;4685535;28;20172;-50
2022/01/17 08:55:42;;;;;;;32.10;11.20;;;;;;;;;;4737411;28;20133;-50
2022/01/17 09:00:57;;;;;;;29.50;10.57;;;;;;;;;;4760283;28;22327;-51
2022/01/17 09:03:22;;;;;;;22.60;9.07;;;;;;;;;;4723914;28;20029;-50
2022/01/17 09:05:48;;;;;;;28.17;9.00;;;;;;;;;;4661750;28;21138;-50
2022/01/17 09:08:16;;;;;;;30.08;8.57;;;;;;;;;;4597288;28;20022;-50
2022/01/17 09:10:42;;;;;;;30.02;9.38;;;;;;;;;;4700462;28;20056;-54
2022/01/17 09:13:10;;;;;;;25.58;9.15;;;;;;;;;;4697217;28;20670;-50
2022/01/17 09:15:36;;;;;;;24.70;7.75;;;;;;;;;;4751907;28;22550;-51
2022/01/17 09:18:05;;;;;;;30.65;8.38;;;;;;;;;;4731112;28;20038;-52
2022/01/17 09:20:38;;;;;;;30.10;8.00;;;;;;;;;;4753881;28;20089;-52
2022/01/17 09:23:04;;;;;;;29.08;7.43;;;;;;;;;;4726241;28;20033;-50
2022/01/17 09:25:30;;;;;;;27.17;8.15;;;;;;;;;;4681783;28;21900;-50
2022/01/17 09:27:55;;;;;;;25.55;7.50;;;;;;;;;;4645095;28;23766;-50
2022/01/17 09:30:20;;;;;;;17.85;6.47;;;;;;;;;;4619471;28;21108;-50
2022/01/17 09:32:46;;;;;;;25.00;7.05;;;;;;;;;;4492492;28;20145;-50
2022/01/17 09:35:23;;;;;;;21.65;6.30;;;;;;;;;;4642333;28;20816;-51
2022/01/17 09:37:49;;;;;;;27.98;6.53;;;;;;;;;;4650145;28;22637;-52
2022/01/17 09:40:19;;;;;;;18.80;6.00;;;;;;;;;;4708443;28;20610;-51
2022/01/17 09:42:45;;;;;;;19.02;5.65;;;;;;;;;;4750201;28;20030;-50
2022/01/17 09:45:11;;;;;;;25.23;5.97;;;;;;;;;;4748521;28;20902;-52
2022/01/17 09:47:40;;;;;;;19.85;5.38;;;;;;;;;;4766720;28;21353;-52
2022/01/17 09:50:09;;;;;;;31.65;6.20;;;;;;;;;;4759186;28;20076;-52
2022/01/17 09:52:37;;;;;;;25.58;6.38;;;;;;;;;;4728390;28;21729;-53
2022/01/17 09:55:11;;;;;;;18.13;5.30;;;;;;;;;;4741296;28;20995;-51
2022/01/17 09:57:55;;;;;;;18.50;4.65;;;;;;;;;;4748111;28;20821;-49
2022/01/17 10:00:26;;;;;;;23.27;5.85;;;;;;;;;;4726572;28;20049;-49
2022/01/17 10:02:52;;;;;;;24.77;5.53;;;;;;;;;;4739561;28;20073;-52
2022/01/17 10:05:18;;;;;;;24.48;5.13;;;;;;;;;;4731349;28;22042;-52
2022/01/17 10:07:52;;;;;;;22.05;4.20;;;;;;;;;;4704871;28;20604;-53
2022/01/17 10:10:32;;;;;;;20.33;4.25;;;;;;;;;;4710292;28;20034;-51
2022/01/17 10:13:02;;;;;;;26.00;5.55;;;;;;;;;;4734298;28;20042;-50
2022/01/17 10:15:36;;;;;;;16.70;4.13;;;;;;;;;;4660223;28;20034;-51
2022/01/17 10:18:01;;;;;;;26.00;5.20;;;;;;;;;;4564869;28;23461;-52
2022/01/17 10:20:32;;;;;;;19.40;4.90;;;;;;;;;;4619172;28;20026;-54
2022/01/17 10:23:17;;;;;;;19.30;4.70;;;;;;;;;;4505165;28;21111;-49
2022/01/17 10:26:02;;;;;;;19.92;4.18;;;;;;;;;;4513370;28;21694;-50
2022/01/17 10:36:47;;;;;;;24.85;4.50;;;;;;;;;;4710848;28;20041;-49
2022/01/17 10:39:12;;;;;;;19.48;3.97;;;;;;;;;;4674192;28;20614;-49
2022/01/17 10:41:37;;;;;;;24.45;4.75;;;;;;;;;;4695112;28;20030;-48
2022/01/17 10:44:03;;;;;;;20.45;5.13;;;;;;;;;;4639915;28;20031;-48
2022/01/17 10:46:28;;;;;;;16.23;4.65;;;;;;;;;;4656269;28;21118;-49
2022/01/17 10:48:54;;;;;;;17.60;4.28;;;;;;;;;;4681227;28;22389;-51
2022/01/17 10:51:26;;;;;;;18.90;4.13;;;;;;;;;;4691000;28;20077;-52
2022/01/17 10:53:51;;;;;;;18.23;5.00;;;;;;;;;;4696435;28;20031;-50
2022/01/17 10:56:17;;;;;;;24.00;5.10;;;;;;;;;;4667844;28;20077;-51
2022/01/17 10:58:44;;;;;;;19.42;3.72;;;;;;;;;;4699068;28;20578;-51
2022/01/17 11:01:15;;;;;;;29.20;5.38;;;;;;;;;;4710904;28;20791;-50
2022/01/17 11:03:47;;;;;;;20.13;6.35;;;;;;;;;;4686698;28;20070;-51
2022/01/17 11:06:13;;;;;;;20.75;4.00;;;;;;;;;;4632093;28;20152;-52
2022/01/17 11:08:40;;;;;;;21.25;4.97;;;;;;;;;;4724351;23;20058;-82
2022/01/17 11:11:09;;;;;;;18.05;3.67;;;;;;;;;;4856289;28;20029;-82
2022/01/17 11:13:39;;;;;;;19.88;4.10;;;;;;;;;;4836533;28;21565;-83
2022/01/17 11:16:12;;;;;;;26.30;5.75;;;;;;;;;;4807281;28;20123;-82
2022/01/17 11:18:45;;;;;;;21.33;4.35;;;;;;;;;;4910479;28;20030;-82
2022/01/17 11:21:16;;;;;;;21.50;4.38;;;;;;;;;;4928724;28;20593;-84
2022/01/17 11:23:43;;;;;;;19.40;3.67;;;;;;;;;;4941040;28;20045;-83
2022/01/17 11:26:09;;;;;;;29.20;4.60;;;;;;;;;;4946599;28;20030;-83
2022/01/17 11:28:34;;;;;;;23.10;4.60;;;;;;;;;;4933541;28;22137;-84
2022/01/17 11:31:04;;;;;;;25.98;4.55;;;;;;;;;;4954039;28;20033;-84
2022/01/17 11:33:30;;;;;;;23.30;5.28;;;;;;;;;;4975693;28;21287;-83
2022/01/17 11:35:56;;;;;;;20.67;5.07;;;;;;;;;;4959229;28;20054;-83
2022/01/17 11:38:30;;;;;;;21.80;4.70;;;;;;;;;;4913042;28;20029;-82
2022/01/17 11:40:57;;;;;;;23.45;4.85;;;;;;;;;;4923534;28;20022;-82
2022/01/17 11:43:37;;;;;;;28.23;5.18;;;;;;;;;;4918442;28;20046;-82
2022/01/17 11:46:17;;;;;;;23.40;4.20;;;;;;;;;;4909016;28;20925;-81
2022/01/17 11:48:53;;;;;;;15.07;4.22;;;;;;;;;;4939626;28;20025;-83
2022/01/17 11:51:19;;;;;;;28.80;5.90;;;;;;;;;;4871751;28;20045;-84
2022/01/17 11:53:49;;;;;;;21.17;4.53;;;;;;;;;;4957586;28;20030;-83
2022/01/17 11:56:15;;;;;;;29.23;5.03;;;;;;;;;;4923245;28;20084;-83
2022/01/17 11:58:53;;;;;;;18.70;4.13;;;;;;;;;;4972356;28;20053;-83
2022/01/17 12:01:20;;;;;;;22.85;4.38;;;;;;;;;;4962588;28;20723;-83
2022/01/17 12:03:47;;;;;;;21.08;4.00;;;;;;;;;;4937206;28;20165;-83
2022/01/17 12:06:22;;;;;;;26.52;4.70;;;;;;;;;;4952663;28;20619;-83
2022/01/17 12:08:48;;;;;;;16.20;3.92;;;;;;;;;;4925741;28;20065;-84
2022/01/17 12:11:30;;;;;;;22.05;4.15;;;;;;;;;;4969407;28;20034;-84
2022/01/17 12:14:00;;;;;;;20.10;3.80;;;;;;;;;;4976263;28;20189;-83
2022/01/17 12:16:53;;;;;;;19.30;4.00;;;;;;;;;;4966760;28;20033;-83
2022/01/17 12:19:18;;;;;;;19.52;3.90;;;;;;;;;;4931913;28;20070;-83
2022/01/17 12:21:53;;;;;;;24.08;4.20;;;;;;;;;;4970615;28;20117;-82
2022/01/17 12:24:30;;;;;;;24.90;4.28;;;;;;;;;;4949835;28;20284;-83
2022/01/17 12:27:01;;;;;;;16.13;4.25;;;;;;;;;;4943982;28;20034;-83
2022/01/17 12:29:50;;;;;;;25.80;3.90;;;;;;;;;;4924344;28;20118;-82
2022/01/17 12:32:24;;;;;;;24.13;3.85;;;;;;;;;;4932772;28;20034;-82
2022/01/17 12:34:52;;;;;;;17.40;3.85;;;;;;;;;;4926773;28;20034;-82
2022/01/17 12:37:33;;;;;;;23.83;4.43;;;;;;;;;;4900716;28;20144;-83
2022/01/17 12:40:10;;;;;;;29.77;4.72;;;;;;;;;;4845444;28;20029;-82
2022/01/17 12:42:48;;;;;;;21.55;4.18;;;;;;;;;;4959313;28;20064;-83
2022/01/17 12:45:17;;;;;;;20.83;4.60;;;;;;;;;;4960525;28;20030;-83
2022/01/17 12:47:44;;;;;;;23.73;4.63;;;;;;;;;;4962673;28;20037;-84
2022/01/17 12:50:10;;;;;;;19.98;4.13;;;;;;;;;;4967679;28;20991;-83
2022/01/17 12:52:35;;;;;;;18.95;3.90;;;;;;;;;;4970008;28;20030;-82
2022/01/17 12:55:03;;;;;;;27.75;5.53;;;;;;;;;;4965683;28;20077;-83
2022/01/17 12:57:29;;;;;;;21.23;5.00;;;;;;;;;;4971850;28;20187;-83
2022/01/17 12:59:55;;;;;;;24.75;4.38;;;;;;;;;;4967825;28;20032;-84
2022/01/17 13:02:20;;;;;;;28.92;5.53;;;;;;;;;;4975046;28;20018;-83
2022/01/17 13:04:45;;;;;;;16.48;4.13;;;;;;;;;;4907430;28;22100;-83
2022/01/17 13:07:11;;;;;;;20.48;3.60;;;;;;;;;;4877586;28;20029;-83
2022/01/17 13:09:37;;;;;;;18.42;3.60;;;;;;;;;;4884687;28;20188;-82
2022/01/17 13:12:05;;;;;;;23.88;4.63;;;;;;;;;;4861296;28;20077;-82
2022/01/17 13:14:32;;;;;;;17.90;4.22;;;;;;;;;;4864394;28;20169;-82
2022/01/17 13:16:57;;;;;;;27.10;4.80;;;;;;;;;;4800077;28;21929;-82
2022/01/17 13:19:23;;;;;;;26.55;4.40;;;;;;;;;;4802849;28;22785;-84
2022/01/17 13:21:50;;;;;;;18.77;4.85;;;;;;;;;;4808037;28;20496;-84
2022/01/17 13:24:21;;;;;;;15.90;3.53;;;;;;;;;;4843754;28;20132;-82
2022/01/17 13:26:48;;;;;;;19.00;3.45;;;;;;;;;;4869715;28;20037;-82
2022/01/17 13:29:14;;;;;;;20.88;4.53;;;;;;;;;;4885223;28;20041;-82
2022/01/17 13:31:40;;;;;;;13.05;3.80;;;;;;;;;;4892853;28;20030;-82
2022/01/17 13:34:11;;;;;;;24.83;5.45;;;;;;;;;;4891228;28;20030;-82
2022/01/17 13:36:37;;;;;;;19.27;4.22;;;;;;;;;;4893897;28;20034;-82
2022/01/17 13:39:09;;;;;;;19.25;4.13;;;;;;;;;;4893906;28;20977;-82
2022/01/17 13:41:35;;;;;;;18.95;4.35;;;;;;;;;;4918523;28;20036;-83
2022/01/17 13:44:00;;;;;;;16.60;3.95;;;;;;;;;;4904530;28;21151;-82
2022/01/17 13:46:25;;;;;;;20.05;3.85;;;;;;;;;;4897956;28;21218;-83
2022/01/17 13:48:51;;;;;;;21.30;4.15;;;;;;;;;;4889314;28;20026;-82
2022/01/17 13:51:20;;;;;;;21.60;4.43;;;;;;;;;;4895551;28;20129;-82
2022/01/17 13:53:45;;;;;;;16.85;4.13;;;;;;;;;;4904377;28;20026;-82
2022/01/17 13:56:11;;;;;;;18.42;5.25;;;;;;;;;;4904739;28;20272;-82
2022/01/17 13:58:41;;;;;;;18.38;4.78;;;;;;;;;;4852852;28;20653;-81
2022/01/17 14:01:12;;;;;;;22.02;5.05;;;;;;;;;;4885484;28;20049;-82
2022/01/17 14:03:40;;;;;;;22.23;4.78;;;;;;;;;;4859136;28;20034;-82
2022/01/17 14:06:07;;;;;;;19.23;4.50;;;;;;;;;;4898901;28;20053;-82
2022/01/17 14:08:37;;;;;;;22.27;4.50;;;;;;;;;;4889605;28;20542;-84
2022/01/17 14:11:26;;;;;;;28.30;4.20;;;;;;;;;;4980632;28;20109;-83
2022/01/17 14:13:52;;;;;;;20.00;5.28;;;;;;;;;;4921148;28;20042;-83
2022/01/17 14:16:18;;;;;;;20.08;4.57;;;;;;;;;;4982832;28;20146;-83
2022/01/17 14:18:46;;;;;;;22.60;5.15;;;;;;;;;;4978610;28;20526;-83
2022/01/17 14:21:23;;;;;;;25.02;4.50;;;;;;;;;;4983489;28;20169;-84
2022/01/17 14:23:49;;;;;;;17.15;3.70;;;;;;;;;;4982637;28;20037;-81
2022/01/17 14:26:27;;;;;;;15.73;4.35;;;;;;;;;;4975678;28;20034;-83
2022/01/17 14:28:52;;;;;;;25.30;5.00;;;;;;;;;;4979843;28;20037;-83
2022/01/17 14:31:17;;;;;;;19.77;4.05;;;;;;;;;;4980763;28;20030;-83
2022/01/17 14:33:47;;;;;;;17.70;4.22;;;;;;;;;;4978649;28;20027;-82
2022/01/17 14:36:16;;;;;;;25.50;4.90;;;;;;;;;;4983080;28;20061;-82
2022/01/17 14:38:46;;;;;;;19.98;4.60;;;;;;;;;;4985225;28;20023;-83
2022/01/17 14:41:15;;;;;;;15.73;3.97;;;;;;;;;;4972774;28;20291;-83
2022/01/17 14:43:41;;;;;;;22.48;4.25;;;;;;;;;;4983893;28;20006;-82
2022/01/17 14:46:07;;;;;;;27.90;4.85;;;;;;;;;;4943918;28;20840;-82
2022/01/17 14:48:33;;;;;;;23.08;4.43;;;;;;;;;;4931866;28;20112;-82
2022/01/17 14:51:12;;;;;;;21.75;5.45;;;;;;;;;;4946086;28;20109;-83
2022/01/17 14:53:37;;;;;;;24.15;4.47;;;;;;;;;;4961698;28;20022;-83
2022/01/17 15:01:48;;;;;;;36.60;5.20;;;;;;;;;;4939663;29;20053;-83
2022/01/17 15:04:13;;;;;;;32.33;4.93;;;;;;;;;;4954177;28;20045;-82